メインページ
METAR-TAF:

METAR-TAF

空港 :

サルガド・フィーリョ国際空港

ポルト・アレグレ, リオグランデ・ド・スル州, ブラジル

緯度: 30-00S, 経度: 051-11W, 海抜: 3m

現時点の気象観測

当レポートは42分前の02:00(UTC)に作成
変向風 1kt
気温 23°C
湿度 89%
気圧 1014 hPa
視程10km以上
1,500メートル以下は雲なし、積乱雲なし

METAR: SBPA 150200Z VRB01KT CAVOK 23/21 Q1014

時間: 00:42 (02:42 UTC)

予報

当レポートは4時間42分前の22:00(UTC)に作成
予報は15日の 00時(UTC)から 15日の 24時(UTC)まで有効
北/北西の風 11kt
視程10km以上
高度4000ftの雲はほとんどない
確率 30% :
15日の 06時(UTC)から 15日の 12時(UTC)まで一時的に
視程: 8000m
高度3500ftの雲は散在している
確率 40% :
15日の 18時(UTC)から 15日の 22時(UTC)まで一時的に
視程: 8000m
高度4500ftの雲はほとんどない, 塔状積雲.
にわか雨

TAF: SBPA 142200Z 1500/1524 34011KT 9999 FEW040 TN23/1508Z TX31/1518Z PROB30 TEMPO 1506/1512 8000 RA SCT035 PROB40 TEMPO 1518/1522 8000 SHRA SCT0 40 FEW045TCU RMK PEB

4,000以上の空港の気象観測と天気予報(METAR報とTAF報)

利用可能な観測所は地図上に黄色い丸と赤い丸で示す。

丸の上にカーソルを重ねると観測所名を参照できる。

次にクリックすると気象観測と天気予報を参照できる。

マップの切り替え:黒色「×」印の緑ボタンをクリックして拡大、「-」印の緑ボタンをクリックして縮小、緑色の三角印をクリックして隣りの地図に切り替え


METAR-TAF: